Time;durP1;ratioP1;P1;durP2;ratioP2;P2;SDS_P1;SDS_P2;PMS_P1;PMS_P2;Temp;Humidity;BMP_temperature;BMP_pressure;BME280_temperature;BME280_humidity;BME280_pressure;Samples;Min_cycle;Max_cycle;Signal;HPM_P1;HPM_P2
2022/12/03 00:01:08;;;;;;;18.73;13.40;;;;;;;3.99;91.81;95606.56;4932652;29;20197;-80
2022/12/03 00:03:35;;;;;;;17.87;12.97;;;;;;;4.10;91.65;95601.31;4934638;29;20204;-80
2022/12/03 00:06:01;;;;;;;20.03;13.73;;;;;;;4.23;90.67;95590.84;4933577;29;20231;-79
2022/12/03 00:08:28;;;;;;;20.30;14.40;;;;;;;4.20;89.96;95595.41;4933246;29;20201;-80
2022/12/03 00:10:54;;;;;;;19.77;13.77;;;;;;;4.10;90.07;95603.03;4932681;29;20205;-81
2022/12/03 00:13:21;;;;;;;19.73;13.40;;;;;;;4.04;91.05;95599.28;4924813;29;20220;-80
2022/12/03 00:15:47;;;;;;;19.60;14.07;;;;;;;4.14;90.53;95606.94;4932609;29;20702;-81
2022/12/03 00:18:15;;;;;;;19.07;13.33;;;;;;;4.16;90.05;95603.31;4932956;29;20707;-81
2022/12/03 00:20:41;;;;;;;17.73;12.67;;;;;;;4.15;89.14;95604.25;4933372;29;20217;-80
2022/12/03 00:23:08;;;;;;;19.83;13.17;;;;;;;4.02;89.96;95610.59;4931946;29;20205;-80
2022/12/03 00:25:34;;;;;;;18.50;12.70;;;;;;;3.86;90.76;95600.09;4932392;29;20198;-79
2022/12/03 00:28:01;;;;;;;16.87;12.80;;;;;;;3.77;91.10;95610.19;4928508;29;20213;-80
2022/12/03 00:30:27;;;;;;;16.90;12.17;;;;;;;3.81;90.76;95608.19;4934877;29;20206;-80
2022/12/03 00:32:54;;;;;;;17.90;12.60;;;;;;;3.72;91.36;95608.97;4935831;29;20237;-81
2022/12/03 00:35:21;;;;;;;17.53;12.87;;;;;;;3.77;91.40;95612.72;4935179;29;20210;-80
2022/12/03 00:37:48;;;;;;;17.77;12.23;;;;;;;3.73;91.32;95596.09;4935044;29;20213;-80
2022/12/03 00:40:15;;;;;;;17.30;12.37;;;;;;;3.71;91.63;95597.97;4935303;29;20207;-80
2022/12/03 00:42:41;;;;;;;16.23;12.03;;;;;;;3.73;91.76;95597.84;4935088;29;20718;-80
2022/12/03 00:45:08;;;;;;;16.70;12.07;;;;;;;3.77;91.13;95596.66;4934338;29;20213;-80
2022/12/03 00:47:35;;;;;;;16.90;12.33;;;;;;;3.72;91.73;95598.78;4934650;29;20251;-81
2022/12/03 00:50:01;;;;;;;17.83;12.37;;;;;;;3.67;92.01;95598.38;4934959;29;20740;-80
2022/12/03 00:52:29;;;;;;;18.83;13.00;;;;;;;3.66;92.35;95601.84;4933854;29;20221;-79
2022/12/03 00:54:55;;;;;;;17.47;12.43;;;;;;;3.66;92.52;95595.03;4934561;29;20220;-80
2022/12/03 00:57:22;;;;;;;17.13;12.33;;;;;;;3.60;93.50;95599.88;4934961;29;20221;-81
2022/12/03 00:59:48;;;;;;;18.30;12.20;;;;;;;3.68;93.47;95599.97;4934170;29;20198;-79
2022/12/03 01:02:15;;;;;;;16.17;12.27;;;;;;;3.79;92.10;95605.75;4935144;29;20573;-80
2022/12/03 01:04:41;;;;;;;17.57;12.53;;;;;;;3.71;92.33;95597.16;4934097;29;20202;-80
2022/12/03 01:07:08;;;;;;;19.33;13.23;;;;;;;3.73;92.67;95608.84;4934622;29;20749;-79
2022/12/03 01:09:35;;;;;;;20.00;13.13;;;;;;;3.75;91.87;95606.97;4934386;29;20198;-80
2022/12/03 01:12:02;;;;;;;17.50;13.13;;;;;;;3.62;91.83;95606.44;4934494;29;20778;-81
2022/12/03 01:14:28;;;;;;;18.93;12.80;;;;;;;3.61;92.27;95602.28;4934482;29;20574;-80
2022/12/03 01:16:55;;;;;;;19.97;14.03;;;;;;;3.62;92.84;95603.88;4926652;29;20267;-80
2022/12/03 01:19:21;;;;;;;19.20;12.93;;;;;;;3.53;93.99;95601.31;4934383;29;20221;-80
2022/12/03 01:21:50;;;;;;;20.57;13.33;;;;;;;3.43;94.51;95601.31;4933931;29;20258;-79
2022/12/03 01:24:17;;;;;;;20.40;13.10;;;;;;;3.44;94.14;95595.31;4933500;29;20221;-80
2022/12/03 01:26:45;;;;;;;18.77;12.43;;;;;;;3.38;93.20;95606.81;4925795;29;20225;-81
2022/12/03 01:29:12;;;;;;;18.60;12.60;;;;;;;3.28;93.37;95600.88;4933915;29;20198;-80
2022/12/03 01:34:23;;;;;;;18.90;12.73;;;;;;;3.21;94.01;95606.63;4926029;29;20212;-81
2022/12/03 01:36:51;;;;;;;21.17;13.97;;;;;;;3.11;95.53;95609.16;4933890;29;20747;-80
2022/12/03 01:39:18;;;;;;;19.00;13.13;;;;;;;3.18;95.59;95614.53;4934803;29;20206;-80
2022/12/03 01:41:46;;;;;;;18.63;13.20;;;;;;;3.07;95.01;95607.81;4933402;29;20201;-81
2022/12/03 01:44:16;;;;;;;22.70;14.83;;;;;;;3.10;94.86;95612.63;4934223;29;20201;-80
2022/12/03 01:46:44;;;;;;;19.50;13.40;;;;;;;3.03;95.12;95627.63;4934349;29;20217;-81
2022/12/03 01:49:15;;;;;;;19.40;12.63;;;;;;;2.88;95.91;95617.94;4933914;29;20696;-81
2022/12/03 01:51:42;;;;;;;17.97;12.33;;;;;;;2.85;96.08;95615.66;4933633;29;20217;-80
2022/12/03 01:54:16;;;;;;;19.97;12.40;;;;;;;2.93;95.95;95615.78;4925105;29;20213;-80
2022/12/03 01:56:43;;;;;;;18.20;12.37;;;;;;;3.17;95.04;95605.28;4933372;29;20228;-80
2022/12/03 01:59:15;;;;;;;19.13;12.73;;;;;;;3.20;93.41;95610.13;4933896;29;20208;-79
2022/12/03 02:01:42;;;;;;;17.90;12.27;;;;;;;3.25;93.57;95613.09;4933633;29;20834;-80
2022/12/03 02:04:12;;;;;;;18.03;12.83;;;;;;;3.18;93.34;95610.25;4933345;29;20201;-80
2022/12/03 02:06:39;;;;;;;19.93;12.43;;;;;;;3.21;93.69;95604.09;4933520;29;20277;-81
2022/12/03 02:09:07;;;;;;;16.83;11.87;;;;;;;3.36;92.96;95597.69;4933619;29;20346;-81
2022/12/03 02:11:37;;;;;;;19.40;13.30;;;;;;;3.45;92.42;95602.00;4933059;29;20201;-80
2022/12/03 02:14:07;;;;;;;18.17;12.57;;;;;;;3.44;91.50;95602.94;4933779;29;20205;-81
2022/12/03 02:16:36;;;;;;;20.30;12.47;;;;;;;3.37;92.04;95614.56;4933099;29;20217;-81
2022/12/03 02:19:05;;;;;;;18.40;12.07;;;;;;;3.24;92.64;95619.91;4933454;29;20202;-80
2022/12/03 02:21:48;;;;;;;21.13;13.93;;;;;;;3.14;93.23;95619.06;4933030;29;20198;-81
2022/12/03 02:24:22;;;;;;;18.37;12.70;;;;;;;3.03;94.54;95622.53;4933605;29;20224;-80
2022/12/03 02:26:50;;;;;;;21.67;13.20;;;;;;;2.95;94.57;95619.81;4933085;29;20233;-79
2022/12/03 02:29:17;;;;;;;20.00;12.47;;;;;;;2.98;94.65;95609.38;4932294;29;20197;-80
2022/12/03 02:31:43;;;;;;;20.30;13.20;;;;;;;2.97;95.11;95617.94;4932845;29;20197;-80
2022/12/03 02:34:11;;;;;;;19.20;13.40;;;;;;;2.88;95.80;95618.75;4933045;29;20201;-80
2022/12/03 02:36:39;;;;;;;20.20;12.87;;;;;;;2.98;95.72;95618.75;4932936;29;20224;-80
2022/12/03 02:39:05;;;;;;;18.70;12.50;;;;;;;2.91;95.68;95621.00;4932487;29;20793;-79
2022/12/03 02:44:18;;;;;;;16.90;11.30;;;;;;;2.97;94.82;95625.56;4932770;29;20208;-79
2022/12/03 02:46:45;;;;;;;14.23;10.17;;;;;;;2.90;93.74;95616.03;4932751;29;20221;-80
2022/12/03 02:49:11;;;;;;;17.17;11.07;;;;;;;2.88;93.70;95607.75;4932397;29;20288;-80
2022/12/03 02:51:38;;;;;;;14.77;10.60;;;;;;;2.91;93.97;95615.91;4932619;29;20205;-80
2022/12/03 02:54:04;;;;;;;13.70;10.23;;;;;;;2.86;94.76;95615.50;4931867;29;20216;-80
2022/12/03 02:56:32;;;;;;;16.17;10.67;;;;;;;2.88;94.61;95616.19;4931957;29;20225;-80
2022/12/03 02:59:03;;;;;;;16.17;11.27;;;;;;;2.84;95.08;95614.84;4924245;29;20214;-80
2022/12/03 03:01:33;;;;;;;17.00;10.93;;;;;;;2.88;94.25;95603.47;4932005;29;20682;-80
2022/12/03 03:04:01;;;;;;;16.73;11.07;;;;;;;2.78;95.09;95617.88;4932519;29;20260;-79
2022/12/03 03:06:28;;;;;;;14.93;10.73;;;;;;;2.78;94.49;95607.72;4932648;29;20276;-80
2022/12/03 03:08:55;;;;;;;16.87;10.53;;;;;;;2.90;93.88;95610.97;4933037;29;20328;-81
2022/12/03 03:11:21;;;;;;;14.87;9.97;;;;;;;2.71;93.69;95621.84;4932908;29;20201;-81
2022/12/03 03:13:48;;;;;;;13.87;10.03;;;;;;;2.71;93.89;95617.56;4932970;29;20223;-80
2022/12/03 03:16:14;;;;;;;16.77;10.57;;;;;;;2.82;93.36;95619.25;4932699;29;20226;-80
2022/12/03 03:18:42;;;;;;;16.60;10.70;;;;;;;2.87;93.36;95623.94;4932348;29;20197;-81
2022/12/03 03:21:09;;;;;;;14.77;10.03;;;;;;;3.00;93.23;95609.25;4932667;29;20194;-81
2022/12/03 03:23:35;;;;;;;13.70;10.20;;;;;;;3.02;92.43;95604.84;4931978;29;20198;-81
2022/12/03 03:26:05;;;;;;;16.53;10.67;;;;;;;2.95;92.06;95599.47;4932155;29;20232;-80
2022/12/03 03:28:34;;;;;;;15.83;10.20;;;;;;;2.96;92.47;95602.81;4931608;29;20220;-80
2022/12/03 03:31:02;;;;;;;15.30;10.80;;;;;;;2.95;93.30;95591.84;4932639;29;20811;-81
2022/12/03 03:33:29;;;;;;;15.23;9.60;;;;;;;3.01;93.38;95585.44;4932055;29;20222;-79
2022/12/03 03:35:59;;;;;;;15.87;10.40;;;;;;;3.13;91.94;95590.28;4932270;29;20225;-80
2022/12/03 03:38:28;;;;;;;14.43;9.63;;;;;;;3.19;91.42;95593.25;4932427;29;20201;-80
2022/12/03 03:40:56;;;;;;;16.07;10.27;;;;;;;3.04;91.91;95600.44;4932223;29;20209;-81
2022/12/03 03:43:23;;;;;;;17.10;10.77;;;;;;;2.95;92.31;95604.56;4932623;29;20205;-81
2022/12/03 03:45:51;;;;;;;16.13;10.77;;;;;;;2.98;92.93;95598.41;4931809;29;20575;-79
2022/12/03 03:48:18;;;;;;;15.17;10.73;;;;;;;2.99;92.91;95600.03;4931789;29;20198;-81
2022/12/03 03:50:45;;;;;;;17.67;11.20;;;;;;;2.97;93.22;95600.16;4932181;29;20209;-80
2022/12/03 03:53:13;;;;;;;16.63;10.97;;;;;;;2.95;93.17;95601.22;4931158;29;20258;-81
2022/12/03 03:55:40;;;;;;;17.27;11.37;;;;;;;2.94;92.93;95602.94;4931688;29;20209;-80
2022/12/03 03:58:07;;;;;;;14.47;9.80;;;;;;;3.02;92.18;95600.56;4931989;29;20213;-80
2022/12/03 04:00:35;;;;;;;17.47;10.13;;;;;;;2.90;92.63;95595.69;4924261;29;20710;-80
2022/12/03 04:03:03;;;;;;;16.27;10.67;;;;;;;2.80;93.70;95593.13;4932086;29;20197;-80
2022/12/03 04:05:29;;;;;;;15.30;10.13;;;;;;;2.98;93.08;95596.69;4935252;29;20588;-81
2022/12/03 04:07:57;;;;;;;15.03;10.17;;;;;;;3.03;91.56;95596.28;4935107;29;20212;-79
2022/12/03 04:13:09;;;;;;;17.97;11.03;;;;;;;2.70;93.94;95593.09;4935486;29;20328;-79
2022/12/03 04:15:35;;;;;;;16.70;10.87;;;;;;;2.64;95.29;95600.44;4935556;29;20229;-80
2022/12/03 04:20:48;;;;;;;18.47;12.20;;;;;;;2.61;96.56;95578.63;4918171;29;20256;-80
2022/12/03 04:23:13;;;;;;;15.87;10.90;;;;;;;2.56;97.10;95582.47;4935681;29;20594;-80
2022/12/03 04:36:33;;;;;;;15.07;9.70;;;;;;;2.22;98.76;95602.22;4935361;29;20248;-81
2022/12/03 04:39:00;;;;;;;15.60;10.00;;;;;;;2.26;98.67;95608.69;4935016;29;20554;-81
2022/12/03 04:41:27;;;;;;;14.50;9.80;;;;;;;2.28;97.89;95604.28;4935416;29;20666;-80
2022/12/03 04:46:38;;;;;;;16.87;9.67;;;;;;;2.29;98.03;95610.97;4935385;29;20232;-81
2022/12/03 04:49:05;;;;;;;15.00;9.67;;;;;;;2.29;98.79;95605.88;4934758;29;20198;-79
2022/12/03 04:51:31;;;;;;;14.47;9.43;;;;;;;2.30;98.80;95612.59;4935074;29;20201;-80
2022/12/03 04:53:57;;;;;;;15.87;9.83;;;;;;;2.31;98.17;95614.97;4934122;29;20228;-80
2022/12/03 04:56:24;;;;;;;13.33;9.40;;;;;;;2.40;97.57;95610.88;4934283;29;20244;-78
2022/12/03 04:58:52;;;;;;;14.40;9.73;;;;;;;2.53;97.22;95610.66;4934785;29;20209;-81
2022/12/03 05:01:18;;;;;;;14.43;8.90;;;;;;;2.54;96.81;95615.63;4934188;29;20193;-80
2022/12/03 05:03:45;;;;;;;14.27;9.83;;;;;;;2.44;97.13;95612.25;4934289;29;20197;-79
2022/12/03 05:06:11;;;;;;;12.60;8.70;;;;;;;2.43;97.19;95610.63;4934666;29;20228;-81
2022/12/03 05:08:38;;;;;;;13.17;9.17;;;;;;;2.57;96.24;95610.28;4934585;29;20202;-79
2022/12/03 05:11:04;;;;;;;13.80;9.43;;;;;;;2.48;95.82;95613.63;4934583;29;20206;-81
2022/12/03 05:13:30;;;;;;;12.40;8.67;;;;;;;2.50;95.94;95614.28;4934722;29;20237;-81
2022/12/03 05:15:58;;;;;;;14.97;9.03;;;;;;;2.56;95.23;95610.41;4932942;29;20355;-80
2022/12/03 05:18:25;;;;;;;11.93;8.60;;;;;;;2.65;94.94;95605.41;4933803;29;20198;-80
2022/12/03 05:20:51;;;;;;;13.73;8.90;;;;;;;2.78;94.15;95603.44;4934333;29;20206;-80
2022/12/03 05:23:18;;;;;;;13.23;8.77;;;;;;;2.91;93.07;95617.66;4934430;29;20198;-80
2022/12/03 05:25:44;;;;;;;12.50;8.47;;;;;;;3.02;92.13;95604.84;4933790;29;20197;-79
2022/12/03 05:28:11;;;;;;;9.77;7.27;;;;;;;3.11;91.03;95614.22;4934268;29;20201;-79
2022/12/03 05:30:38;;;;;;;10.97;8.40;;;;;;;3.08;90.89;95620.38;4934388;29;20558;-80
2022/12/03 05:33:05;;;;;;;12.27;8.30;;;;;;;3.08;90.57;95617.84;4933921;29;20225;-80
2022/12/03 05:35:32;;;;;;;11.47;8.67;;;;;;;2.96;90.72;95626.50;4934307;29;20205;-79
2022/12/03 05:37:58;;;;;;;13.27;8.73;;;;;;;2.82;91.91;95621.78;4933958;29;20202;-81
2022/12/03 05:40:25;;;;;;;12.57;8.83;;;;;;;2.85;92.28;95625.81;4934123;29;20204;-81
2022/12/03 05:42:53;;;;;;;12.73;8.63;;;;;;;2.99;91.76;95621.16;4934019;29;20201;-80
2022/12/03 05:45:20;;;;;;;13.73;8.17;;;;;;;3.16;91.10;95624.03;4934130;29;20209;-80
2022/12/03 05:47:47;;;;;;;12.17;8.60;;;;;;;3.28;90.76;95615.34;4933180;29;20686;-78
2022/12/03 05:50:15;;;;;;;12.53;8.73;;;;;;;3.29;89.79;95611.88;4934408;29;20194;-81
2022/12/03 05:52:41;;;;;;;12.57;8.47;;;;;;;3.18;90.28;95617.06;4933472;29;20572;-81
2022/12/03 05:55:08;;;;;;;11.37;8.23;;;;;;;3.15;90.44;95623.22;4933859;29;20755;-80
2022/12/03 05:57:35;;;;;;;13.27;8.93;;;;;;;3.09;91.33;95621.19;4933472;29;20280;-79
2022/12/03 06:00:01;;;;;;;11.93;8.50;;;;;;;3.02;91.74;95628.56;4933636;29;20201;-81
2022/12/03 06:02:28;;;;;;;13.73;8.83;;;;;;;3.01;91.89;95626.94;4934267;29;20677;-79
2022/12/03 06:04:54;;;;;;;14.87;9.07;;;;;;;2.88;93.04;95630.66;4934126;29;20208;-81
2022/12/03 06:07:22;;;;;;;13.10;8.83;;;;;;;2.89;92.91;95630.50;4933033;29;20221;-80
2022/12/03 06:09:48;;;;;;;14.17;8.80;;;;;;;2.92;92.95;95619.25;4933550;29;20193;-78
2022/12/03 06:12:15;;;;;;;14.80;10.00;;;;;;;2.93;93.82;95625.97;4933658;29;20666;-81
2022/12/03 06:14:41;;;;;;;16.10;9.43;;;;;;;2.84;94.56;95616.56;4933807;29;20222;-79
2022/12/03 06:17:08;;;;;;;16.33;10.23;;;;;;;2.81;93.85;95624.44;4932808;29;20224;-80
2022/12/03 06:19:34;;;;;;;13.90;9.53;;;;;;;2.94;93.58;95622.47;4932981;29;20576;-81
2022/12/03 06:22:01;;;;;;;13.90;9.23;;;;;;;3.01;93.17;95621.03;4933283;29;20207;-79
2022/12/03 06:24:29;;;;;;;15.57;9.50;;;;;;;3.07;93.02;95608.63;4933194;29;20198;-81
2022/12/03 06:26:55;;;;;;;14.23;9.53;;;;;;;3.16;92.89;95603.69;4932486;29;20970;-79
2022/12/03 06:29:22;;;;;;;14.33;9.63;;;;;;;3.23;92.07;95605.56;4932694;29;20225;-80
2022/12/03 06:31:48;;;;;;;17.27;10.43;;;;;;;3.20;92.23;95597.41;4933582;29;20240;-80
2022/12/03 06:34:14;;;;;;;15.47;9.60;;;;;;;3.27;91.51;95601.03;4933163;29;20229;-80
2022/12/03 06:36:41;;;;;;;14.77;9.17;;;;;;;3.15;91.06;95600.31;4932773;29;20221;-81
2022/12/03 06:39:07;;;;;;;13.13;8.97;;;;;;;3.09;91.60;95596.56;4933075;29;20198;-79
2022/12/03 06:41:35;;;;;;;15.17;9.20;;;;;;;3.18;91.75;95609.44;4932729;29;20210;-79
2022/12/03 06:44:02;;;;;;;16.23;10.20;;;;;;;3.22;91.83;95608.25;4934470;29;20205;-80
2022/12/03 06:46:28;;;;;;;16.37;10.87;;;;;;;3.39;100.00;95597.44;4934109;29;20232;-82
2022/12/03 06:48:54;;;;;;;15.03;10.40;;;;;;;3.81;100.00;95598.00;4933615;29;20202;-84
2022/12/03 06:51:21;;;;;;;17.27;10.67;;;;;;;3.68;93.87;95597.44;4933660;29;20205;-81
2022/12/03 06:53:47;;;;;;;15.87;10.00;;;;;;;3.55;92.64;95604.53;4930578;29;20218;-81
2022/12/03 06:56:14;;;;;;;16.30;10.40;;;;;;;3.35;91.88;95591.00;4932533;29;20221;-81
2022/12/03 06:58:42;;;;;;;16.27;10.57;;;;;;;3.21;92.86;95599.00;4931188;29;20208;-81
2022/12/03 07:01:08;;;;;;;18.13;10.77;;;;;;;2.93;94.49;95595.44;4932438;29;20220;-81
2022/12/03 07:03:35;;;;;;;21.40;10.97;;;;;;;2.70;96.30;95605.81;4930838;29;20205;-82
2022/12/03 07:06:01;;;;;;;18.70;11.17;;;;;;;2.77;97.25;95612.00;4932164;29;20226;-80
2022/12/03 07:08:28;;;;;;;16.87;11.07;;;;;;;3.02;95.71;95598.03;4932101;29;20698;-82
2022/12/03 07:10:54;;;;;;;16.43;10.77;;;;;;;3.16;94.18;95593.50;4931012;29;20204;-80
2022/12/03 07:13:21;;;;;;;14.87;10.50;;;;;;;3.10;92.85;95600.72;4932068;29;20217;-81
2022/12/03 07:15:49;;;;;;;16.80;10.57;;;;;;;3.11;93.37;95596.44;4932170;29;20216;-80
2022/12/03 07:18:16;;;;;;;16.03;10.00;;;;;;;2.99;92.95;95597.47;4931729;29;20208;-81
2022/12/03 07:20:42;;;;;;;15.87;10.67;;;;;;;2.93;94.58;95590.34;4931511;29;20200;-81
2022/12/03 07:23:09;;;;;;;16.57;10.87;;;;;;;2.94;94.13;95594.50;4932025;29;20739;-80
2022/12/03 07:25:35;;;;;;;18.60;11.33;;;;;;;2.90;94.00;95596.50;4930620;29;20190;-79
2022/12/03 07:28:01;;;;;;;16.27;10.60;;;;;;;2.82;94.97;95600.63;4931455;29;20210;-81
2022/12/03 07:30:28;;;;;;;16.43;10.53;;;;;;;2.91;94.82;95593.03;4931797;29;20208;-81
2022/12/03 07:32:56;;;;;;;18.33;10.50;;;;;;;2.81;95.18;95604.91;4931142;29;20209;-82
2022/12/03 07:35:22;;;;;;;16.37;10.30;;;;;;;2.66;95.54;95612.09;4931072;29;20197;-79
2022/12/03 07:37:49;;;;;;;14.97;10.27;;;;;;;2.71;97.24;95609.94;4931021;29;20222;-81
2022/12/03 07:40:15;;;;;;;17.43;10.03;;;;;;;2.86;95.23;95607.09;4934257;29;20198;-81
2022/12/03 07:42:42;;;;;;;16.97;10.43;;;;;;;2.77;95.01;95599.28;4935970;29;20585;-79
2022/12/03 07:45:09;;;;;;;17.33;10.77;;;;;;;2.77;95.14;95601.00;4935226;29;20198;-84
2022/12/03 07:47:36;;;;;;;16.23;10.93;;;;;;;2.68;95.98;95612.78;4934838;29;20228;-79
2022/12/03 07:50:04;;;;;;;19.73;10.93;;;;;;;2.66;95.72;95614.63;4936188;29;20213;-82
2022/12/03 07:52:31;;;;;;;18.13;10.73;;;;;;;2.66;96.14;95606.19;4935434;29;20217;-82
2022/12/03 07:54:57;;;;;;;16.53;11.10;;;;;;;2.65;96.08;95614.75;4935728;29;20221;-82
2022/12/03 07:57:24;;;;;;;16.13;10.63;;;;;;;2.56;96.04;95613.78;4936396;29;20229;-81
2022/12/03 07:59:50;;;;;;;17.80;10.53;;;;;;;2.56;96.79;95613.78;4936174;29;20213;-81
2022/12/03 08:02:16;;;;;;;16.70;10.77;;;;;;;2.49;97.59;95616.97;4935273;29;20588;-80
2022/12/03 08:04:43;;;;;;;18.00;10.70;;;;;;;2.51;97.62;95610.00;4935094;29;20213;-81
2022/12/03 08:07:11;;;;;;;17.60;10.47;;;;;;;2.49;97.17;95604.25;4935132;29;20218;-81
2022/12/03 08:09:40;;;;;;;17.13;10.83;;;;;;;2.47;97.62;95601.03;4934824;29;20206;-81
2022/12/03 08:12:15;;;;;;;15.67;10.60;;;;;;;2.38;98.13;95605.13;4934903;29;20197;-79
2022/12/03 08:14:42;;;;;;;16.03;10.17;;;;;;;2.44;98.66;95599.53;4934376;29;20272;-82
2022/12/03 08:17:11;;;;;;;16.57;10.40;;;;;;;2.50;97.54;95606.66;4934898;29;20573;-81
2022/12/03 08:19:37;;;;;;;16.40;10.27;;;;;;;2.54;96.90;95604.66;4934544;29;20233;-80
2022/12/03 08:22:12;;;;;;;15.70;10.57;;;;;;;2.38;97.69;95600.03;4934228;29;20205;-82
2022/12/03 08:24:39;;;;;;;17.87;11.50;;;;;;;2.35;97.91;95598.56;4935088;29;20642;-81
2022/12/03 08:27:16;;;;;;;17.80;11.20;;;;;;;2.31;99.11;95593.88;4936031;29;20264;-81
2022/12/03 08:29:42;;;;;;;17.27;11.17;;;;;;;2.34;98.66;95596.13;4935585;29;20192;-82
2022/12/03 08:32:11;;;;;;;18.23;11.30;;;;;;;2.37;99.18;95600.97;4935798;29;20205;-81
2022/12/03 08:34:39;;;;;;;22.53;13.80;;;;;;;2.57;98.52;95605.22;4935955;29;20221;-80
2022/12/03 08:37:14;;;;;;;17.83;11.13;;;;;;;2.58;95.86;95608.56;4935161;29;20740;-80
2022/12/03 08:39:45;;;;;;;18.40;11.17;;;;;;;2.57;96.71;95606.94;4935370;29;20205;-81
2022/12/03 08:45:26;;;;;;;14.70;10.00;;;;;;;2.77;94.95;95601.81;4935638;29;20185;-81
2022/12/03 08:47:54;;;;;;;16.03;10.50;;;;;;;2.75;94.88;95607.97;4936014;29;20229;-81
2022/12/03 08:50:27;;;;;;;14.90;10.47;;;;;;;2.81;94.61;95609.19;4936146;29;20209;-82
2022/12/03 08:52:57;;;;;;;16.50;10.63;;;;;;;2.76;94.47;95615.47;4935209;29;20669;-81
2022/12/03 08:55:35;;;;;;;18.73;11.20;;;;;;;2.66;94.55;95608.75;4935990;29;20232;-81
2022/12/03 08:58:14;;;;;;;15.60;10.33;;;;;;;2.77;93.88;95604.38;4935191;29;20740;-82
2022/12/03 09:00:41;;;;;;;15.23;10.47;;;;;;;2.89;93.42;95605.06;4936248;29;20700;-82
2022/12/03 09:03:14;;;;;;;17.20;12.00;;;;;;;2.74;94.23;95598.72;4935746;29;20206;-82
2022/12/03 09:05:41;;;;;;;20.80;11.17;;;;;;;2.67;95.14;95602.72;4936392;29;20205;-82
2022/12/03 09:08:07;;;;;;;17.70;11.37;;;;;;;2.81;97.31;95599.84;4935777;29;20268;-81
2022/12/03 09:10:35;;;;;;;16.00;10.43;;;;;;;2.72;95.42;95606.47;4936204;29;20581;-82
2022/12/03 09:13:02;;;;;;;16.37;11.03;;;;;;;2.77;97.14;95608.66;4936122;29;20244;-81
2022/12/03 09:15:28;;;;;;;16.17;11.83;;;;;;;2.72;95.72;95605.69;4935914;29;20228;-82
2022/12/03 09:17:54;;;;;;;18.37;11.90;;;;;;;2.76;94.91;95607.03;4935596;29;20228;-82
2022/12/03 09:20:21;;;;;;;17.87;11.73;;;;;;;2.91;94.91;95604.94;4935803;29;20209;-80
2022/12/03 09:22:47;;;;;;;15.73;11.27;;;;;;;3.00;93.77;95610.06;4935585;29;20205;-81
2022/12/03 09:25:14;;;;;;;17.53;11.43;;;;;;;3.04;93.00;95603.78;4936036;29;20201;-82
2022/12/03 09:27:42;;;;;;;15.70;10.57;;;;;;;3.17;92.06;95607.84;4935116;29;20233;-82
2022/12/03 09:30:09;;;;;;;17.50;11.30;;;;;;;3.17;91.26;95598.47;4935853;29;20209;-82
2022/12/03 09:32:36;;;;;;;19.20;11.73;;;;;;;3.14;91.71;95598.72;4936010;29;20584;-81
2022/12/03 09:35:02;;;;;;;15.70;11.10;;;;;;;3.21;91.87;95593.91;4935398;29;20223;-82
2022/12/03 09:37:29;;;;;;;17.13;11.57;;;;;;;3.15;91.30;95594.44;4935603;29;20233;-81
2022/12/03 09:39:55;;;;;;;21.97;11.27;;;;;;;3.06;91.66;95590.94;4935324;29;20231;-81
2022/12/03 09:42:22;;;;;;;16.57;10.37;;;;;;;2.90;92.18;95595.69;4934835;29;20209;-80
2022/12/03 09:44:50;;;;;;;15.63;10.17;;;;;;;3.01;92.70;95585.44;4933540;29;20677;-81
2022/12/03 09:47:16;;;;;;;17.17;11.00;;;;;;;2.91;93.23;95582.06;4935195;29;20232;-81
2022/12/03 09:49:43;;;;;;;15.07;11.00;;;;;;;2.92;93.78;95581.91;4933931;29;20197;-81
2022/12/03 09:52:14;;;;;;;15.50;10.33;;;;;;;3.10;92.94;95582.09;4933328;29;20206;-80
2022/12/03 09:54:40;;;;;;;16.33;10.73;;;;;;;2.99;92.21;95580.47;4934272;29;20227;-80
2022/12/03 09:57:07;;;;;;;16.37;11.17;;;;;;;3.13;92.25;95574.22;4933452;29;20742;-81
2022/12/03 09:59:34;;;;;;;16.70;10.93;;;;;;;3.24;100.00;95560.59;4927240;29;20658;-81
2022/12/03 10:02:03;;;;;;;16.50;10.83;;;;;;;3.06;93.57;95558.69;4933348;29;20245;-81
2022/12/03 10:04:30;;;;;;;32.63;21.47;;;;;;;3.17;92.71;95556.97;4933975;29;20214;-80
2022/12/03 10:06:58;;;;;;;15.10;11.20;;;;;;;3.13;91.72;95552.13;4933628;29;20616;-81
2022/12/03 10:09:27;;;;;;;16.40;11.30;;;;;;;3.04;91.56;95552.13;4933554;29;20207;-81
2022/12/03 10:11:54;;;;;;;15.70;10.73;;;;;;;3.09;91.64;95540.59;4925822;29;20833;-81
2022/12/03 10:14:21;;;;;;;16.10;10.50;;;;;;;3.30;91.49;95545.56;4933562;29;20232;-80
2022/12/03 10:16:48;;;;;;;15.60;10.63;;;;;;;3.42;90.54;95551.38;4933036;29;20228;-80
2022/12/03 10:19:22;;;;;;;14.33;10.23;;;;;;;3.31;89.93;95548.94;4933685;29;20201;-82
2022/12/03 10:21:49;;;;;;;15.13;10.20;;;;;;;3.35;90.58;95547.72;4933532;29;20330;-81
2022/12/03 10:24:25;;;;;;;15.23;10.43;;;;;;;3.33;89.96;95544.50;4933718;29;20284;-80
2022/12/03 10:26:53;;;;;;;13.67;10.17;;;;;;;3.38;89.63;95545.72;4933120;29;20717;-80
2022/12/03 10:29:22;;;;;;;15.00;10.60;;;;;;;3.40;89.33;95538.78;4933287;29;20684;-81
2022/12/03 10:31:55;;;;;;;13.53;9.63;;;;;;;3.52;88.85;95538.63;4933740;29;20662;-81
2022/12/03 10:34:29;;;;;;;32.00;21.20;;;;;;;3.45;88.66;95523.91;4933519;29;20229;-81
2022/12/03 10:37:14;;;;;;;15.97;11.10;;;;;;;3.16;89.86;95524.81;4933543;29;20213;-82
2022/12/03 10:39:58;;;;;;;14.90;10.60;;;;;;;3.04;91.02;95527.50;4932861;29;20201;-81
2022/12/03 10:42:26;;;;;;;13.70;10.17;;;;;;;3.03;90.93;95522.53;4933524;29;20579;-80
2022/12/03 10:45:23;;;;;;;16.37;10.33;;;;;;;2.91;91.32;95521.84;4932965;29;20198;-81
2022/12/03 10:48:05;;;;;;;14.20;10.00;;;;;;;3.01;92.31;95519.31;4854851;29;20782;-81
2022/12/03 10:50:34;;;;;;;13.67;9.63;;;;;;;3.03;91.33;95510.63;4922369;29;20209;-81
2022/12/03 10:53:00;;;;;;;14.97;9.20;;;;;;;2.96;90.43;95514.63;4931912;29;20210;-79
2022/12/03 10:55:28;;;;;;;13.47;9.83;;;;;;;3.15;89.94;95513.03;4932800;29;20233;-81
2022/12/03 10:57:55;;;;;;;12.63;9.07;;;;;;;3.23;89.14;95514.00;4932191;29;20217;-82
2022/12/03 11:00:22;;;;;;;12.07;8.87;;;;;;;3.28;88.54;95514.38;4932910;29;20202;-81
2022/12/03 11:02:49;;;;;;;16.80;10.13;;;;;;;3.20;88.10;95514.25;4932830;29;20227;-80
2022/12/03 11:05:17;;;;;;;14.63;9.70;;;;;;;3.13;88.72;95503.81;4932146;29;20194;-81
2022/12/03 11:07:45;;;;;;;14.93;10.00;;;;;;;3.25;89.04;95506.22;4931929;29;20838;-82
2022/12/03 11:10:14;;;;;;;12.63;9.43;;;;;;;3.23;88.39;95500.47;4932657;29;20205;-81
2022/12/03 11:12:41;;;;;;;12.90;10.10;;;;;;;3.27;88.29;95504.34;4932360;29;20204;-82
2022/12/03 11:15:15;;;;;;;13.40;9.83;;;;;;;3.43;88.29;95497.00;4933187;29;20221;-81
2022/12/03 11:17:47;;;;;;;14.23;10.13;;;;;;;3.41;86.95;95496.31;4932280;29;20664;-83
2022/12/03 11:20:47;;;;;;;13.90;9.30;;;;;;;3.33;87.88;95502.06;4932881;29;20192;-81
2022/12/03 11:23:35;;;;;;;28.70;19.50;;;;;;;3.27;88.41;95500.03;4931646;29;20233;-80
2022/12/03 11:26:01;;;;;;;16.60;11.63;;;;;;;3.32;87.95;95508.09;4932129;29;20241;-81
2022/12/03 11:28:36;;;;;;;14.50;9.73;;;;;;;3.47;87.81;95503.38;4932376;29;20209;-81
2022/12/03 11:31:10;;;;;;;15.07;10.87;;;;;;;3.53;86.66;95510.50;4925213;29;20546;-82
2022/12/03 11:33:38;;;;;;;16.23;12.00;;;;;;;3.46;86.57;95510.22;4932143;29;20193;-81
2022/12/03 11:36:18;;;;;;;19.70;12.40;;;;;;;3.40;86.63;95507.44;4931877;29;20649;-82
2022/12/03 11:38:56;;;;;;;19.47;13.83;;;;;;;3.42;87.28;95511.44;4926749;29;20273;-83
2022/12/03 11:41:26;;;;;;;17.43;11.67;;;;;;;3.19;87.67;95505.00;4932945;29;20243;-83
2022/12/03 11:44:19;;;;;;;18.07;11.87;;;;;;;3.20;87.38;95508.38;4932919;29;20213;-83
2022/12/03 11:46:47;;;;;;;16.57;11.10;;;;;;;2.94;88.11;95505.50;4932161;29;20213;-80
2022/12/03 11:49:28;;;;;;;16.47;11.43;;;;;;;2.81;89.91;95505.78;4931856;29;20206;-81
2022/12/03 11:51:55;;;;;;;19.43;12.97;;;;;;;2.75;90.34;95494.38;4929471;29;20208;-82
2022/12/03 11:54:23;;;;;;;18.30;12.13;;;;;;;2.87;90.39;95501.91;4931866;29;20225;-82
2022/12/03 11:56:51;;;;;;;20.77;13.07;;;;;;;2.80;90.96;95514.31;4931742;29;20210;-82
2022/12/03 11:59:18;;;;;;;20.10;14.00;;;;;;;2.75;91.57;95502.00;4931897;29;20201;-82